createdAt,value
2023-02-16T00:00:39.410Z,3.14
2023-02-16T00:03:27.799Z,3.11
2023-02-16T00:05:57.372Z,3.03
2023-02-16T00:08:25.653Z,2.95
2023-02-16T00:11:14.297Z,2.89
2023-02-16T00:13:54.718Z,2.87
2023-02-16T00:16:27.242Z,2.85
2023-02-16T00:18:58.581Z,2.86
2023-02-16T00:21:26.799Z,2.90
2023-02-16T00:23:54.966Z,2.91
2023-02-16T00:26:25.968Z,2.92
2023-02-16T00:28:59.219Z,2.92
2023-02-16T00:31:32.474Z,2.94
2023-02-16T00:34:22.626Z,2.93
2023-02-16T00:36:51.438Z,2.93
2023-02-16T00:39:19.547Z,2.95
2023-02-16T00:41:51.473Z,2.95
2023-02-16T00:44:34.404Z,2.95
2023-02-16T00:47:28.684Z,2.95
2023-02-16T00:49:58.802Z,2.96
2023-02-16T00:52:30.563Z,2.96
2023-02-16T00:55:01.276Z,2.93
2023-02-16T00:57:34.486Z,2.93
2023-02-16T01:00:13.101Z,2.92
2023-02-16T01:02:43.536Z,2.89
2023-02-16T01:05:13.056Z,2.82
2023-02-16T01:08:00.457Z,2.76
2023-02-16T01:10:48.489Z,2.69
2023-02-16T01:13:17.388Z,2.67
2023-02-16T01:15:45.902Z,2.65
2023-02-16T01:18:17.535Z,2.62
2023-02-16T01:20:46.332Z,2.60
2023-02-16T01:23:15.283Z,2.61
2023-02-16T01:25:43.679Z,2.62
2023-02-16T01:28:26.308Z,2.62
2023-02-16T01:30:54.573Z,2.62
2023-02-16T01:33:24.082Z,2.61
2023-02-16T01:35:55.325Z,2.62
2023-02-16T01:38:28.972Z,2.61
2023-02-16T01:41:52.099Z,2.60
2023-02-16T01:44:35.523Z,2.56
2023-02-16T01:47:13.239Z,2.53
2023-02-16T01:49:41.595Z,2.51
2023-02-16T01:52:25.550Z,2.48
2023-02-16T01:54:56.389Z,2.44
2023-02-16T01:57:41.560Z,2.44
2023-02-16T02:00:30.313Z,2.44
2023-02-16T02:03:20.699Z,2.44
2023-02-16T02:05:51.433Z,2.44
2023-02-16T02:08:22.688Z,2.44
2023-02-16T02:11:03.328Z,2.46
2023-02-16T02:13:37.464Z,2.50
2023-02-16T02:16:07.239Z,2.53
2023-02-16T02:18:35.449Z,2.54
2023-02-16T02:21:44.659Z,2.54
2023-02-16T02:24:34.757Z,2.47
2023-02-16T02:27:05.711Z,2.49
2023-02-16T02:29:49.857Z,2.51
2023-02-16T02:32:24.493Z,2.51
2023-02-16T02:35:11.496Z,2.50
2023-02-16T02:38:03.307Z,2.45
2023-02-16T02:40:58.723Z,2.40
2023-02-16T02:43:45.416Z,2.36
2023-02-16T02:46:24.984Z,2.30
2023-02-16T02:48:53.584Z,2.33
2023-02-16T02:51:28.809Z,2.35
2023-02-16T02:54:38.420Z,2.39
2023-02-16T02:57:40.091Z,2.42
2023-02-16T03:00:44.106Z,2.42
2023-02-16T03:03:33.264Z,2.41
2023-02-16T03:06:07.801Z,2.36
2023-02-16T03:08:40.258Z,2.36
2023-02-16T03:11:31.369Z,2.35
2023-02-16T03:14:27.704Z,2.33
2023-02-16T03:17:17.803Z,2.30
2023-02-16T03:20:08.699Z,2.23
2023-02-16T03:22:57.739Z,2.24
2023-02-16T03:25:50.301Z,2.20
2023-02-16T03:28:41.113Z,2.17
2023-02-16T03:31:14.894Z,2.14
2023-02-16T03:33:43.759Z,2.15
2023-02-16T03:36:11.973Z,2.14
2023-02-16T03:38:40.642Z,2.14
2023-02-16T03:41:08.912Z,2.14
2023-02-16T03:43:37.699Z,2.11
2023-02-16T03:46:06.186Z,2.11
2023-02-16T03:48:34.563Z,2.09
2023-02-16T03:51:03.115Z,2.13
2023-02-16T03:53:31.822Z,2.15
2023-02-16T03:55:59.999Z,2.15
2023-02-16T03:58:28.274Z,2.13
2023-02-16T04:00:57.072Z,2.12
2023-02-16T04:03:26.579Z,2.13
2023-02-16T04:05:56.462Z,2.12
2023-02-16T04:08:24.667Z,2.10
2023-02-16T04:10:54.454Z,2.08
2023-02-16T04:13:22.546Z,2.05
2023-02-16T04:15:50.715Z,2.05
2023-02-16T04:18:18.886Z,2.06
2023-02-16T04:20:47.166Z,2.09
2023-02-16T04:23:15.451Z,2.11
2023-02-16T04:25:43.721Z,2.15
2023-02-16T04:28:11.898Z,2.18
2023-02-16T04:30:40.175Z,2.21
2023-02-16T04:33:08.439Z,2.23
2023-02-16T04:35:36.580Z,2.23
2023-02-16T04:38:04.796Z,2.23
2023-02-16T04:40:33.072Z,2.21
2023-02-16T04:43:01.349Z,2.21
2023-02-16T04:45:29.517Z,2.18
2023-02-16T04:47:57.691Z,2.12
2023-02-16T04:50:26.106Z,2.08
2023-02-16T04:52:54.448Z,2.05
2023-02-16T04:55:23.158Z,2.04
2023-02-16T04:57:51.407Z,2.05
2023-02-16T05:00:20.539Z,2.07
2023-02-16T05:02:48.781Z,2.08
2023-02-16T05:05:17.140Z,2.06
2023-02-16T05:07:45.335Z,2.02
2023-02-16T05:10:13.507Z,2.05
2023-02-16T05:13:00.540Z,2.06
2023-02-16T05:15:28.719Z,2.07
2023-02-16T05:17:56.975Z,2.07
2023-02-16T05:20:45.331Z,2.08
2023-02-16T05:23:13.701Z,2.11
2023-02-16T05:25:41.916Z,2.12
2023-02-16T05:28:10.503Z,2.15
2023-02-16T05:30:38.965Z,2.18
2023-02-16T05:33:07.223Z,2.20
2023-02-16T05:35:35.789Z,2.25
2023-02-16T05:38:03.986Z,2.31
2023-02-16T05:40:32.256Z,2.36
2023-02-16T05:43:00.435Z,2.43
2023-02-16T05:45:28.696Z,2.50
2023-02-16T05:47:56.886Z,2.59
2023-02-16T05:50:25.060Z,2.67
2023-02-16T05:52:53.537Z,2.77
2023-02-16T05:55:24.124Z,2.85
2023-02-16T05:57:52.880Z,2.96
2023-02-16T06:00:22.272Z,3.05
2023-02-16T06:02:50.778Z,3.14
2023-02-16T06:05:20.159Z,3.22
2023-02-16T06:07:48.531Z,3.30
2023-02-16T06:10:17.725Z,3.39
2023-02-16T06:12:46.098Z,3.46
2023-02-16T06:15:14.799Z,3.53
2023-02-16T06:17:44.928Z,3.60
2023-02-16T06:20:13.489Z,3.65
2023-02-16T06:22:41.976Z,3.69
2023-02-16T06:25:10.556Z,3.74
2023-02-16T06:27:39.038Z,3.83
2023-02-16T06:30:08.954Z,3.90
2023-02-16T06:32:37.551Z,4.00
2023-02-16T06:35:06.686Z,4.09
2023-02-16T06:37:34.957Z,4.13
2023-02-16T06:40:03.742Z,4.23
2023-02-16T06:42:32.331Z,4.26
2023-02-16T06:45:00.729Z,4.32
2023-02-16T06:47:28.984Z,4.38
2023-02-16T06:49:57.158Z,4.42
2023-02-16T06:52:25.539Z,4.47
2023-02-16T06:54:53.818Z,4.53
2023-02-16T06:57:22.084Z,4.59
2023-02-16T06:59:50.364Z,4.64
2023-02-16T07:02:18.751Z,4.68
2023-02-16T07:04:47.020Z,4.71
2023-02-16T07:07:15.540Z,4.78
2023-02-16T07:09:44.705Z,4.81
2023-02-16T07:12:13.435Z,4.85
2023-02-16T07:14:44.024Z,4.91
2023-02-16T07:17:12.574Z,4.98
2023-02-16T07:19:41.371Z,5.05
2023-02-16T07:22:09.739Z,5.13
2023-02-16T07:24:38.219Z,5.18
2023-02-16T07:27:07.111Z,5.22
2023-02-16T07:29:36.103Z,5.29
2023-02-16T07:32:04.953Z,5.34
2023-02-16T07:34:33.483Z,5.40
2023-02-16T07:37:02.493Z,5.47
2023-02-16T07:39:33.235Z,5.56
2023-02-16T07:42:03.429Z,5.66
2023-02-16T07:44:32.739Z,5.73
2023-02-16T07:47:01.312Z,5.79
2023-02-16T07:49:30.580Z,5.87
2023-02-16T07:52:01.607Z,5.97
2023-02-16T07:54:35.281Z,6.03
2023-02-16T07:57:06.057Z,6.13
2023-02-16T07:59:37.105Z,6.22
2023-02-16T08:02:06.723Z,6.31
2023-02-16T08:04:38.028Z,6.41
2023-02-16T08:07:06.659Z,6.52
2023-02-16T08:09:35.914Z,6.63
2023-02-16T08:12:04.553Z,6.71
2023-02-16T08:14:33.193Z,6.81
2023-02-16T08:17:01.923Z,6.88
2023-02-16T08:19:31.996Z,6.93
2023-02-16T08:22:02.792Z,6.94
2023-02-16T08:24:34.213Z,7.01
2023-02-16T08:27:04.775Z,7.08
2023-02-16T08:29:33.657Z,7.17
2023-02-16T08:32:07.761Z,7.27
2023-02-16T08:34:36.863Z,7.39
2023-02-16T08:37:05.878Z,7.49
2023-02-16T08:39:35.480Z,7.58
2023-02-16T08:42:05.365Z,7.65
2023-02-16T08:44:34.065Z,7.74
2023-02-16T08:47:02.860Z,7.85
2023-02-16T08:49:31.480Z,7.96
2023-02-16T08:52:01.774Z,8.04
2023-02-16T08:54:32.511Z,8.15
2023-02-16T08:57:03.278Z,8.21
2023-02-16T08:59:32.966Z,8.34
2023-02-16T09:02:01.774Z,8.43
2023-02-16T09:04:30.647Z,8.51
2023-02-16T09:07:00.246Z,8.59
2023-02-16T09:09:28.852Z,8.71
2023-02-16T09:11:58.247Z,8.82
2023-02-16T09:14:26.723Z,8.95
2023-02-16T09:16:55.396Z,9.10
2023-02-16T09:19:25.028Z,9.22
2023-02-16T09:21:57.204Z,9.31
2023-02-16T09:24:27.143Z,9.43
2023-02-16T09:26:56.173Z,9.52
2023-02-16T09:29:24.857Z,9.60
2023-02-16T09:31:55.351Z,9.65
2023-02-16T09:34:26.873Z,9.71
2023-02-16T09:36:56.031Z,9.75
2023-02-16T09:39:27.142Z,9.83
2023-02-16T09:42:25.356Z,9.90
2023-02-16T09:45:11.837Z,9.99
2023-02-16T09:47:45.344Z,10.08
2023-02-16T09:50:38.651Z,10.16
2023-02-16T09:53:22.967Z,10.26
2023-02-16T09:56:07.618Z,10.27
2023-02-16T09:58:53.402Z,10.36
2023-02-16T10:01:40.334Z,10.39
2023-02-16T10:04:35.728Z,10.44
2023-02-16T10:07:36.985Z,10.50
2023-02-16T10:10:08.153Z,10.59
2023-02-16T10:12:47.698Z,10.64
2023-02-16T10:15:22.623Z,10.69
2023-02-16T10:18:27.850Z,10.72
2023-02-16T10:21:02.839Z,10.69
2023-02-16T10:23:41.442Z,10.63
2023-02-16T10:26:18.779Z,10.67
2023-02-16T10:28:50.366Z,10.69
2023-02-16T10:31:25.372Z,10.68
2023-02-16T10:33:55.130Z,10.66
2023-02-16T10:36:42.325Z,10.67
2023-02-16T10:39:26.705Z,10.72
2023-02-16T10:42:23.775Z,10.77
2023-02-16T10:44:59.714Z,10.83
2023-02-16T10:47:37.817Z,10.86
2023-02-16T10:50:08.154Z,10.88
2023-02-16T10:52:41.036Z,10.89
2023-02-16T10:55:11.774Z,10.90
2023-02-16T10:57:40.566Z,10.89
2023-02-16T11:00:18.888Z,10.90
2023-02-16T11:02:51.669Z,10.95
2023-02-16T11:05:26.438Z,10.99
2023-02-16T11:07:57.643Z,11.03
2023-02-16T11:10:40.188Z,11.08
2023-02-16T11:13:24.207Z,11.14
2023-02-16T11:15:56.108Z,11.21
2023-02-16T11:18:39.513Z,11.21
2023-02-16T11:21:11.074Z,11.23
2023-02-16T11:23:41.287Z,11.28
2023-02-16T11:26:12.882Z,11.35
2023-02-16T11:28:46.773Z,11.42
2023-02-16T11:31:36.958Z,11.51
2023-02-16T11:34:12.199Z,11.61
2023-02-16T11:36:44.065Z,11.66
2023-02-16T11:39:21.833Z,11.72
2023-02-16T11:41:58.033Z,11.79
2023-02-16T11:44:28.540Z,11.81
2023-02-16T11:46:58.654Z,11.82
2023-02-16T11:49:38.620Z,11.87
2023-02-16T11:52:25.756Z,11.88
2023-02-16T11:54:57.716Z,11.89
2023-02-16T11:57:36.964Z,11.86
2023-02-16T12:00:26.842Z,11.95
2023-02-16T12:03:19.384Z,11.98
2023-02-16T12:06:11.726Z,12.03
2023-02-16T12:09:07.254Z,12.04
2023-02-16T12:11:45.945Z,12.07
2023-02-16T12:14:23.078Z,12.12
2023-02-16T12:17:13.056Z,12.16
2023-02-16T12:19:45.937Z,12.22
2023-02-16T12:22:26.512Z,12.23
2023-02-16T12:25:20.072Z,12.24
2023-02-16T12:28:16.106Z,12.33
2023-02-16T12:30:53.725Z,12.37
2023-02-16T12:33:43.452Z,12.39
2023-02-16T12:36:27.420Z,12.38
2023-02-16T12:39:03.596Z,12.36
2023-02-16T12:41:32.085Z,12.28
2023-02-16T12:44:04.162Z,12.24
2023-02-16T12:46:58.336Z,12.26
2023-02-16T12:49:30.922Z,12.27
2023-02-16T12:52:08.416Z,12.27
2023-02-16T12:54:52.607Z,12.28
2023-02-16T12:57:24.735Z,12.33
2023-02-16T12:59:59.783Z,12.38
2023-02-16T13:02:44.795Z,12.37
2023-02-16T13:05:30.247Z,12.45
2023-02-16T13:08:13.096Z,12.48
2023-02-16T13:10:57.729Z,12.50
2023-02-16T13:13:31.131Z,12.54
2023-02-16T13:16:30.661Z,12.54
2023-02-16T13:19:00.036Z,12.57
2023-02-16T13:21:54.025Z,12.58
2023-02-16T13:24:40.656Z,12.57
2023-02-16T13:27:43.007Z,12.58
2023-02-16T13:30:42.006Z,12.57
2023-02-16T13:33:25.861Z,12.56
2023-02-16T13:36:24.149Z,12.54
2023-02-16T13:39:10.750Z,12.53
2023-02-16T13:41:57.468Z,12.48
2023-02-16T13:44:32.325Z,12.44
2023-02-16T13:47:05.297Z,12.45
2023-02-16T13:49:43.558Z,12.43
2023-02-16T13:52:32.565Z,12.43
2023-02-16T13:55:04.667Z,12.42
2023-02-16T13:57:50.809Z,12.39
2023-02-16T14:00:25.360Z,12.38
2023-02-16T14:03:00.209Z,12.38
2023-02-16T14:05:49.679Z,12.39
2023-02-16T14:08:19.008Z,12.41
2023-02-16T14:10:56.206Z,12.21
2023-02-16T14:13:42.971Z,12.31
2023-02-16T14:16:26.844Z,12.33
2023-02-16T14:19:06.568Z,12.34
2023-02-16T14:21:44.989Z,12.39
2023-02-16T14:24:25.959Z,12.42
2023-02-16T14:27:04.178Z,12.43
2023-02-16T14:29:54.016Z,12.40
2023-02-16T14:32:31.545Z,12.36
2023-02-16T14:35:15.220Z,12.33
2023-02-16T14:37:56.275Z,12.28
2023-02-16T14:40:52.527Z,12.22
2023-02-16T14:43:39.645Z,12.18
2023-02-16T14:46:42.311Z,12.16
2023-02-16T14:49:48.602Z,12.12
2023-02-16T14:52:55.917Z,12.07
2023-02-16T14:55:39.519Z,12.05
2023-02-16T14:58:17.132Z,12.06
2023-02-16T15:01:10.937Z,12.06
2023-02-16T15:03:48.315Z,12.06
2023-02-16T15:06:22.915Z,12.03
2023-02-16T15:09:00.518Z,12.01
2023-02-16T15:11:33.299Z,11.98
2023-02-16T15:14:04.568Z,11.95
2023-02-16T15:16:39.283Z,11.92
2023-02-16T15:19:18.209Z,11.89
2023-02-16T15:21:46.878Z,11.86
2023-02-16T15:24:24.510Z,11.82
2023-02-16T15:27:01.704Z,11.79
2023-02-16T15:29:30.683Z,11.76
2023-02-16T15:32:00.825Z,11.72
2023-02-16T15:34:35.336Z,11.65
2023-02-16T15:37:37.088Z,11.60
2023-02-16T15:40:29.667Z,11.51
2023-02-16T15:43:07.708Z,11.45
2023-02-16T15:45:41.134Z,11.38
2023-02-16T15:48:34.335Z,11.29
2023-02-16T15:51:09.069Z,11.20
2023-02-16T15:53:41.734Z,11.10
2023-02-16T15:56:30.493Z,10.98
2023-02-16T15:59:02.268Z,10.97
2023-02-16T16:01:33.828Z,10.92
2023-02-16T16:04:08.741Z,10.84
2023-02-16T16:06:40.499Z,10.74
2023-02-16T16:09:20.751Z,10.65
2023-02-16T16:11:51.194Z,10.59
2023-02-16T16:14:20.495Z,10.41
2023-02-16T16:16:49.798Z,10.23
2023-02-16T16:19:33.432Z,10.09
2023-02-16T16:22:04.629Z,9.99
2023-02-16T16:24:39.150Z,9.87
2023-02-16T16:27:12.815Z,9.75
2023-02-16T16:29:44.183Z,9.68
2023-02-16T16:32:27.209Z,9.62
2023-02-16T16:34:56.325Z,9.60
2023-02-16T16:37:31.455Z,9.57
2023-02-16T16:39:59.734Z,9.57
2023-02-16T16:42:28.865Z,9.55
2023-02-16T16:44:59.665Z,9.53
2023-02-16T16:47:31.309Z,9.49
2023-02-16T16:50:04.835Z,9.47
2023-02-16T16:52:40.672Z,9.41
2023-02-16T16:55:35.593Z,9.30
2023-02-16T16:58:08.565Z,9.18
2023-02-16T17:00:40.014Z,9.05
2023-02-16T17:03:12.327Z,8.91
2023-02-16T17:05:41.912Z,8.82
2023-02-16T17:08:12.217Z,8.75
2023-02-16T17:10:42.464Z,8.67
2023-02-16T17:13:21.067Z,8.60
2023-02-16T17:15:49.790Z,8.55
2023-02-16T17:18:22.756Z,8.49
2023-02-16T17:20:52.063Z,8.41
2023-02-16T17:23:22.995Z,8.35
2023-02-16T17:25:52.119Z,8.30
2023-02-16T17:28:24.067Z,8.26
2023-02-16T17:30:52.756Z,8.22
2023-02-16T17:33:22.809Z,8.20
2023-02-16T17:35:52.589Z,8.20
2023-02-16T17:38:22.734Z,8.18
2023-02-16T17:40:54.358Z,8.14
2023-02-16T17:43:24.294Z,8.12
2023-02-16T17:45:55.382Z,8.07
2023-02-16T17:48:28.347Z,7.99
2023-02-16T17:50:59.749Z,7.93
2023-02-16T17:53:31.153Z,7.86
2023-02-16T17:56:01.035Z,7.80
2023-02-16T17:58:30.136Z,7.75
2023-02-16T18:00:59.861Z,7.68
2023-02-16T18:03:28.425Z,7.66
2023-02-16T18:05:57.566Z,7.64
2023-02-16T18:08:26.740Z,7.60
2023-02-16T18:11:02.408Z,7.63
2023-02-16T18:13:32.656Z,7.63
2023-02-16T18:16:05.121Z,7.63
2023-02-16T18:18:37.032Z,7.62
2023-02-16T18:21:07.006Z,7.61
2023-02-16T18:23:35.779Z,7.55
2023-02-16T18:26:06.758Z,7.57
2023-02-16T18:28:36.586Z,7.57
2023-02-16T18:31:10.737Z,7.57
2023-02-16T18:33:40.483Z,7.57
2023-02-16T18:36:10.481Z,7.55
2023-02-16T18:38:40.200Z,7.55
2023-02-16T18:41:09.364Z,7.57
2023-02-16T18:43:38.794Z,7.57
2023-02-16T18:46:09.841Z,7.57
2023-02-16T18:48:39.459Z,7.53
2023-02-16T18:51:10.198Z,7.56
2023-02-16T18:53:42.251Z,7.54
2023-02-16T18:56:12.595Z,7.54
2023-02-16T18:58:43.065Z,7.54
2023-02-16T19:01:16.864Z,7.52
2023-02-16T19:03:46.034Z,7.48
2023-02-16T19:06:15.259Z,7.44
2023-02-16T19:08:44.247Z,7.38
2023-02-16T19:11:13.433Z,7.31
2023-02-16T19:13:42.980Z,7.22
2023-02-16T19:16:16.758Z,7.12
2023-02-16T19:18:46.367Z,7.02
2023-02-16T19:21:15.763Z,6.97
2023-02-16T19:23:44.963Z,6.92
2023-02-16T19:26:17.366Z,6.89
2023-02-16T19:28:46.253Z,6.86
2023-02-16T19:31:23.056Z,6.84
2023-02-16T19:33:53.038Z,6.82
2023-02-16T19:36:23.262Z,6.81
2023-02-16T19:38:53.569Z,6.82
2023-02-16T19:41:27.916Z,6.83
2023-02-16T19:43:56.695Z,6.85
2023-02-16T19:46:26.842Z,6.85
2023-02-16T19:48:57.964Z,6.85
2023-02-16T19:51:27.597Z,6.82
2023-02-16T19:53:56.572Z,6.83
2023-02-16T19:56:26.307Z,6.82
2023-02-16T19:58:59.406Z,6.81
2023-02-16T20:01:31.299Z,6.80
2023-02-16T20:04:01.362Z,6.81
2023-02-16T20:06:33.892Z,6.82
2023-02-16T20:09:03.871Z,6.83
2023-02-16T20:11:33.902Z,6.82
2023-02-16T20:14:03.172Z,6.78
2023-02-16T20:16:32.210Z,6.82
2023-02-16T20:19:01.169Z,6.83
2023-02-16T20:21:31.008Z,6.84
2023-02-16T20:24:02.661Z,6.83
2023-02-16T20:26:38.814Z,6.81
2023-02-16T20:29:09.860Z,6.79
2023-02-16T20:31:49.712Z,6.77
2023-02-16T20:34:19.421Z,6.77
2023-02-16T20:36:47.908Z,6.78
2023-02-16T20:39:16.624Z,6.78
2023-02-16T20:41:45.990Z,6.80
2023-02-16T20:44:15.310Z,6.81
2023-02-16T20:46:44.302Z,6.83
2023-02-16T20:49:14.002Z,6.84
2023-02-16T20:51:43.629Z,6.86
2023-02-16T20:54:12.913Z,6.88
2023-02-16T20:56:42.145Z,6.90
2023-02-16T20:59:12.468Z,6.92
2023-02-16T21:01:46.780Z,6.94
2023-02-16T21:04:18.315Z,6.96
2023-02-16T21:06:47.462Z,6.99
2023-02-16T21:09:17.032Z,7.01
2023-02-16T21:11:46.976Z,7.05
2023-02-16T21:14:17.190Z,7.07
2023-02-16T21:16:45.820Z,7.05
2023-02-16T21:19:22.858Z,7.05
2023-02-16T21:21:53.649Z,7.07
2023-02-16T21:24:23.205Z,7.11
2023-02-16T21:26:52.199Z,7.19
2023-02-16T21:29:21.190Z,7.26
2023-02-16T21:31:50.288Z,7.29
2023-02-16T21:34:19.499Z,7.36
2023-02-16T21:36:48.895Z,7.41
2023-02-16T21:39:18.723Z,7.46
2023-02-16T21:41:48.626Z,7.52
2023-02-16T21:44:18.739Z,7.56
2023-02-16T21:46:48.653Z,7.58
2023-02-16T21:49:20.649Z,7.60
2023-02-16T21:51:49.481Z,7.64
2023-02-16T21:54:39.835Z,7.67
2023-02-16T21:57:08.599Z,7.69
2023-02-16T21:59:38.277Z,7.75
2023-02-16T22:02:06.799Z,7.78
2023-02-16T22:04:35.512Z,7.84
2023-02-16T22:07:04.298Z,7.84
2023-02-16T22:09:33.710Z,7.88
2023-02-16T22:12:02.488Z,7.87
2023-02-16T22:14:33.436Z,7.85
2023-02-16T22:17:03.473Z,7.77
2023-02-16T22:19:32.138Z,7.77
2023-02-16T22:22:00.818Z,7.77
2023-02-16T22:24:29.312Z,7.74
2023-02-16T22:26:57.786Z,7.71
2023-02-16T22:29:26.170Z,7.68
2023-02-16T22:31:54.683Z,7.63
2023-02-16T22:34:23.919Z,7.60
2023-02-16T22:36:52.231Z,7.56
2023-02-16T22:39:20.706Z,7.52
2023-02-16T22:41:51.080Z,7.54
2023-02-16T22:44:19.424Z,7.55
2023-02-16T22:46:48.422Z,7.54
2023-02-16T22:49:16.835Z,7.54
2023-02-16T22:51:45.282Z,7.56
2023-02-16T22:54:16.948Z,7.57
2023-02-16T22:56:45.245Z,7.58
2023-02-16T22:59:13.834Z,7.59
2023-02-16T23:01:42.833Z,7.62
2023-02-16T23:04:15.670Z,7.65
2023-02-16T23:06:45.314Z,7.68
2023-02-16T23:09:20.135Z,7.75
2023-02-16T23:11:49.677Z,7.80
2023-02-16T23:14:19.569Z,7.84
2023-02-16T23:16:50.461Z,7.90
2023-02-16T23:19:24.228Z,7.95
2023-02-16T23:21:54.045Z,7.97
2023-02-16T23:24:23.962Z,8.00
2023-02-16T23:26:52.951Z,8.03
2023-02-16T23:29:21.865Z,8.07
2023-02-16T23:31:51.382Z,8.09
2023-02-16T23:34:20.952Z,8.10
2023-02-16T23:36:49.240Z,8.11
2023-02-16T23:39:18.839Z,8.12
2023-02-16T23:41:47.129Z,8.12
2023-02-16T23:44:15.496Z,8.12
2023-02-16T23:46:43.996Z,8.14
2023-02-16T23:49:12.275Z,8.15
2023-02-16T23:51:40.540Z,8.14
2023-02-16T23:54:11.070Z,8.09
2023-02-16T23:56:40.000Z,8.03
2023-02-16T23:59:08.252Z,7.97
